Terminal Aerodrome Forecast
Issued by NWS Rapid City, SD

Home | Current Version | Previous Version | Graphics & Text | Print | Product List | Glossary Off
Versions: 1 2 3 4 5 6 7 8 9 10 11 12 13 14 15 16 17 18 19 20 21 22 23 24 25 26 27 28

000
FTUS43 KUNR 301100
TAFRAP
TAF
KRAP 301120Z 3012/0112 36019G29KT 6SM -RA BR BKN012
      TEMPO 3012/3016 2SM -RA BR BKN003
     FM301800 33025G35KT P6SM -SHRA BKN040
     FM302200 31023KT P6SM BKN060
     FM010200 31012KT P6SM OVC100=

USA.gov is the U.S. government's official web portal to all federal, state and local government web resources and services.